createdAt,value
2023-04-15T00:02:02.653Z,6.20
2023-04-15T00:04:31.707Z,6.19
2023-04-15T00:06:59.284Z,6.22
2023-04-15T00:09:26.864Z,6.25
2023-04-15T00:11:54.423Z,6.28
2023-04-15T00:14:22.004Z,6.31
2023-04-15T00:16:55.221Z,6.33
2023-04-15T00:19:24.186Z,6.35
2023-04-15T00:21:51.955Z,6.40
2023-04-15T00:24:19.500Z,6.41
2023-04-15T00:26:47.164Z,6.33
2023-04-15T00:29:15.205Z,6.23
2023-04-15T00:31:43.231Z,6.13
2023-04-15T00:34:10.720Z,6.05
2023-04-15T00:36:39.559Z,6.02
2023-04-15T00:39:07.060Z,6.01
2023-04-15T00:41:35.022Z,6.00
2023-04-15T00:44:03.329Z,5.94
2023-04-15T00:46:32.638Z,5.92
2023-04-15T00:49:00.343Z,5.93
2023-04-15T00:51:28.023Z,5.99
2023-04-15T00:53:57.022Z,6.03
2023-04-15T00:56:25.321Z,6.06
2023-04-15T00:58:53.250Z,6.11
2023-04-15T01:01:22.753Z,6.14
2023-04-15T01:03:51.396Z,6.18
2023-04-15T01:06:19.442Z,6.24
2023-04-15T01:08:47.004Z,6.29
2023-04-15T01:11:16.756Z,6.34
2023-04-15T01:13:44.494Z,6.33
2023-04-15T01:16:13.062Z,6.24
2023-04-15T01:18:40.932Z,6.12
2023-04-15T01:21:08.742Z,6.02
2023-04-15T01:23:38.566Z,5.95
2023-04-15T01:26:08.903Z,5.89
2023-04-15T01:28:37.357Z,5.81
2023-04-15T01:31:09.217Z,5.72
2023-04-15T01:33:36.754Z,5.65
2023-04-15T01:36:05.101Z,5.61
2023-04-15T01:38:33.174Z,5.57
2023-04-15T01:41:00.720Z,5.56
2023-04-15T01:43:29.689Z,5.57
2023-04-15T01:45:57.496Z,5.61
2023-04-15T01:48:24.997Z,5.60
2023-04-15T01:50:53.470Z,5.58
2023-04-15T01:53:21.332Z,5.56
2023-04-15T01:55:49.015Z,5.51
2023-04-15T01:58:16.522Z,5.48
2023-04-15T02:00:45.528Z,5.46
2023-04-15T02:03:13.185Z,5.43
2023-04-15T02:05:40.789Z,5.44
2023-04-15T02:08:08.275Z,5.47
2023-04-15T02:10:35.826Z,5.49
2023-04-15T02:13:03.362Z,5.50
2023-04-15T02:15:30.971Z,5.48
2023-04-15T02:18:00.935Z,5.43
2023-04-15T02:20:30.286Z,5.40
2023-04-15T02:22:58.026Z,5.35
2023-04-15T02:25:25.530Z,5.32
2023-04-15T02:27:53.255Z,5.29
2023-04-15T02:30:21.329Z,5.33
2023-04-15T02:32:48.880Z,5.37
2023-04-15T02:35:19.734Z,5.39
2023-04-15T02:37:47.282Z,5.37
2023-04-15T02:40:14.818Z,5.37
2023-04-15T02:42:44.201Z,5.41
2023-04-15T02:45:13.020Z,5.47
2023-04-15T02:47:41.424Z,5.55
2023-04-15T02:50:12.383Z,5.63
2023-04-15T02:52:42.229Z,5.66
2023-04-15T02:55:10.360Z,5.65
2023-04-15T02:57:39.125Z,5.67
2023-04-15T03:00:09.756Z,5.71
2023-04-15T03:02:38.280Z,5.73
2023-04-15T03:05:06.942Z,5.77
2023-04-15T03:07:34.446Z,5.76
2023-04-15T03:10:03.471Z,5.78
2023-04-15T03:12:31.061Z,5.83
2023-04-15T03:14:58.572Z,5.85
2023-04-15T03:17:26.092Z,5.85
2023-04-15T03:19:53.621Z,5.85
2023-04-15T03:22:21.290Z,5.84
2023-04-15T03:24:48.854Z,5.82
2023-04-15T03:27:17.750Z,5.82
2023-04-15T03:29:45.261Z,5.84
2023-04-15T03:32:12.846Z,5.85
2023-04-15T03:34:40.375Z,5.88
2023-04-15T03:37:08.002Z,5.93
2023-04-15T03:39:35.703Z,5.94
2023-04-15T03:42:03.856Z,5.95
2023-04-15T03:44:32.810Z,5.97
2023-04-15T03:47:00.348Z,6.02
2023-04-15T03:49:27.828Z,6.02
2023-04-15T03:51:55.766Z,6.05
2023-04-15T03:54:23.242Z,6.08
2023-04-15T03:56:50.756Z,6.04
2023-04-15T03:59:18.251Z,5.95
2023-04-15T04:01:47.244Z,5.89
2023-04-15T04:04:14.970Z,5.87
2023-04-15T04:06:42.585Z,5.92
2023-04-15T04:09:10.090Z,5.94
2023-04-15T04:11:37.834Z,5.97
2023-04-15T04:14:05.678Z,6.02
2023-04-15T04:16:33.279Z,6.09
2023-04-15T04:19:02.432Z,6.09
2023-04-15T04:21:30.744Z,6.01
2023-04-15T04:23:59.005Z,5.90
2023-04-15T04:26:27.042Z,5.78
2023-04-15T04:28:54.551Z,5.69
2023-04-15T04:31:23.327Z,5.58
2023-04-15T04:33:51.254Z,5.52
2023-04-15T04:36:20.064Z,5.46
2023-04-15T04:38:47.612Z,5.46
2023-04-15T04:41:15.138Z,5.47
2023-04-15T04:43:42.611Z,5.47
2023-04-15T04:46:10.362Z,5.48
2023-04-15T04:48:37.872Z,5.49
2023-04-15T04:51:06.073Z,5.53
2023-04-15T04:53:35.084Z,5.59
2023-04-15T04:56:02.589Z,5.64
2023-04-15T04:58:30.205Z,5.68
2023-04-15T05:00:58.454Z,5.67
2023-04-15T05:03:26.311Z,5.69
2023-04-15T05:05:54.719Z,5.75
2023-04-15T05:08:22.296Z,5.82
2023-04-15T05:10:51.252Z,5.90
2023-04-15T05:13:18.786Z,5.98
2023-04-15T05:15:46.314Z,6.00
2023-04-15T05:18:13.884Z,6.04
2023-04-15T05:20:41.441Z,6.11
2023-04-15T05:23:09.004Z,6.25
2023-04-15T05:25:36.890Z,6.32
2023-04-15T05:28:06.021Z,6.38
2023-04-15T05:30:33.590Z,6.45
2023-04-15T05:33:01.144Z,6.49
2023-04-15T05:35:28.645Z,6.58
2023-04-15T05:37:56.349Z,6.74
2023-04-15T05:40:24.361Z,6.84
2023-04-15T05:42:51.886Z,6.89
2023-04-15T05:45:21.050Z,6.89
2023-04-15T05:47:50.553Z,6.95
2023-04-15T05:50:18.466Z,7.03
2023-04-15T05:52:46.862Z,7.04
2023-04-15T05:55:15.189Z,7.05
2023-04-15T05:57:42.688Z,7.07
2023-04-15T06:00:11.233Z,7.10
2023-04-15T06:02:40.445Z,7.13
2023-04-15T06:05:10.010Z,7.16
2023-04-15T06:07:38.070Z,7.20
2023-04-15T06:10:07.210Z,7.24
2023-04-15T06:12:34.803Z,7.24
2023-04-15T06:15:02.505Z,7.24
2023-04-15T06:17:30.046Z,7.27
2023-04-15T06:19:58.976Z,7.34
2023-04-15T06:22:26.559Z,7.44
2023-04-15T06:24:54.132Z,7.49
2023-04-15T06:27:22.963Z,7.48
2023-04-15T06:29:50.482Z,7.49
2023-04-15T06:32:17.995Z,7.53
2023-04-15T06:34:45.517Z,7.59
2023-04-15T06:37:16.311Z,7.63
2023-04-15T06:39:44.549Z,7.62
2023-04-15T06:42:12.333Z,7.66
2023-04-15T06:44:40.016Z,7.72
2023-04-15T06:47:07.585Z,7.79
2023-04-15T06:49:35.384Z,7.86
2023-04-15T06:52:04.949Z,7.92
2023-04-15T06:54:33.831Z,7.97
2023-04-15T06:57:01.400Z,7.98
2023-04-15T06:59:28.946Z,8.00
2023-04-15T07:01:56.732Z,8.01
2023-04-15T07:04:24.467Z,8.02
2023-04-15T07:06:52.033Z,8.02
2023-04-15T07:09:20.694Z,7.97
2023-04-15T07:11:50.031Z,7.99
2023-04-15T07:14:17.769Z,8.03
2023-04-15T07:16:45.604Z,8.11
2023-04-15T07:19:13.194Z,8.18
2023-04-15T07:21:41.951Z,8.25
2023-04-15T07:24:10.448Z,8.33
2023-04-15T07:26:37.984Z,8.47
2023-04-15T07:29:07.139Z,8.65
2023-04-15T07:31:34.714Z,8.87
2023-04-15T07:34:02.630Z,9.02
2023-04-15T07:36:30.253Z,9.08
2023-04-15T07:38:57.809Z,9.13
2023-04-15T07:41:25.740Z,9.15
2023-04-15T07:43:53.222Z,9.14
2023-04-15T07:46:23.899Z,9.13
2023-04-15T07:48:52.271Z,9.13
2023-04-15T07:51:21.000Z,9.07
2023-04-15T07:53:48.690Z,9.02
2023-04-15T07:56:16.166Z,9.05
2023-04-15T07:58:44.060Z,9.06
2023-04-15T08:01:11.689Z,9.07
2023-04-15T08:03:41.190Z,9.15
2023-04-15T08:06:09.473Z,9.24
2023-04-15T08:08:37.509Z,9.28
2023-04-15T08:11:05.091Z,9.30
2023-04-15T08:13:32.637Z,9.37
2023-04-15T08:16:19.639Z,9.45
2023-04-15T08:18:49.354Z,9.49
2023-04-15T08:21:18.676Z,9.52
2023-04-15T08:23:47.567Z,9.55
2023-04-15T08:26:15.259Z,9.58
2023-04-15T08:28:46.721Z,9.63
2023-04-15T08:31:16.212Z,9.72
2023-04-15T08:33:43.879Z,9.78
2023-04-15T08:36:13.812Z,9.84
2023-04-15T08:38:41.768Z,9.88
2023-04-15T08:41:21.695Z,9.95
2023-04-15T08:43:54.017Z,9.93
2023-04-15T08:46:22.834Z,9.93
2023-04-15T08:48:51.254Z,9.95
2023-04-15T08:51:21.001Z,10.00
2023-04-15T08:53:50.189Z,10.02
2023-04-15T08:56:18.492Z,10.06
2023-04-15T08:58:46.250Z,10.15
2023-04-15T09:01:14.331Z,10.23
2023-04-15T09:03:43.057Z,10.34
2023-04-15T09:06:11.099Z,10.48
2023-04-15T09:08:40.431Z,10.61
2023-04-15T09:11:08.316Z,10.70
2023-04-15T09:13:35.870Z,10.80
2023-04-15T09:16:04.287Z,10.91
2023-04-15T09:18:33.669Z,11.01
2023-04-15T09:21:08.943Z,11.12
2023-04-15T09:23:37.178Z,11.20
2023-04-15T09:26:07.111Z,11.25
2023-04-15T09:28:35.888Z,11.26
2023-04-15T09:31:03.580Z,11.26
2023-04-15T09:33:31.557Z,11.27
2023-04-15T09:36:01.447Z,11.27
2023-04-15T09:38:29.482Z,11.28
2023-04-15T09:40:57.118Z,11.31
2023-04-15T09:43:38.850Z,11.32
2023-04-15T09:46:06.713Z,11.39
2023-04-15T09:48:34.332Z,11.44
2023-04-15T09:51:02.702Z,11.43
2023-04-15T09:53:31.917Z,11.46
2023-04-15T09:56:02.300Z,11.47
2023-04-15T09:58:33.366Z,11.48
2023-04-15T10:01:03.922Z,11.53
2023-04-15T10:03:33.314Z,11.59
2023-04-15T10:06:02.242Z,11.60
2023-04-15T10:08:32.873Z,11.61
2023-04-15T10:11:02.574Z,11.61
2023-04-15T10:13:36.025Z,11.65
2023-04-15T10:16:07.502Z,11.70
2023-04-15T10:18:38.969Z,11.77
2023-04-15T10:21:07.228Z,11.85
2023-04-15T10:23:35.178Z,11.87
2023-04-15T10:26:05.446Z,11.84
2023-04-15T10:28:35.914Z,11.77
2023-04-15T10:31:05.822Z,11.77
2023-04-15T10:33:34.248Z,11.72
2023-04-15T10:36:02.297Z,11.79
2023-04-15T10:38:37.327Z,11.87
2023-04-15T10:41:20.842Z,11.95
2023-04-15T10:43:52.875Z,11.98
2023-04-15T10:46:22.918Z,11.96
2023-04-15T10:48:52.403Z,11.97
2023-04-15T10:51:29.238Z,11.99
2023-04-15T10:54:00.885Z,12.03
2023-04-15T10:56:30.634Z,12.04
2023-04-15T10:59:01.956Z,11.99
2023-04-15T11:01:52.866Z,11.95
2023-04-15T11:04:55.912Z,11.95
2023-04-15T11:07:37.765Z,11.99
2023-04-15T11:10:26.144Z,12.00
2023-04-15T11:12:58.544Z,12.02
2023-04-15T11:15:29.982Z,12.00
2023-04-15T11:17:58.365Z,12.01
2023-04-15T11:20:26.207Z,12.00
2023-04-15T11:23:13.711Z,11.97
2023-04-15T11:25:43.867Z,11.91
2023-04-15T11:28:14.110Z,11.94
2023-04-15T11:30:43.430Z,11.99
2023-04-15T11:33:13.788Z,12.00
2023-04-15T11:35:42.502Z,12.02
2023-04-15T11:38:11.925Z,12.10
2023-04-15T11:40:40.293Z,12.19
2023-04-15T11:43:09.298Z,12.26
2023-04-15T11:45:39.195Z,12.37
2023-04-15T11:48:08.305Z,12.46
2023-04-15T11:50:36.867Z,12.56
2023-04-15T11:53:08.327Z,12.62
2023-04-15T11:55:44.108Z,12.66
2023-04-15T11:58:15.023Z,12.71
2023-04-15T12:00:49.639Z,12.73
2023-04-15T12:03:25.929Z,12.83
2023-04-15T12:06:12.386Z,12.91
2023-04-15T12:09:04.723Z,12.88
2023-04-15T12:11:43.613Z,12.79
2023-04-15T12:14:14.183Z,12.72
2023-04-15T12:16:48.394Z,12.65
2023-04-15T12:19:19.270Z,12.51
2023-04-15T12:21:48.885Z,12.38
2023-04-15T12:24:16.519Z,12.27
2023-04-15T12:26:50.415Z,12.14
2023-04-15T12:29:18.549Z,12.03
2023-04-15T12:31:52.347Z,11.95
2023-04-15T12:34:26.786Z,11.91
2023-04-15T12:36:54.679Z,11.84
2023-04-15T12:39:23.835Z,11.73
2023-04-15T12:41:51.507Z,11.66
2023-04-15T12:44:19.101Z,11.60
2023-04-15T12:46:46.872Z,11.54
2023-04-15T12:49:16.034Z,11.51
2023-04-15T12:51:43.774Z,11.44
2023-04-15T12:54:11.267Z,11.37
2023-04-15T12:56:38.756Z,11.34
2023-04-15T12:59:06.337Z,11.35
2023-04-15T13:01:34.152Z,11.37
2023-04-15T13:04:01.917Z,11.38
2023-04-15T13:06:33.152Z,11.42
2023-04-15T13:09:01.911Z,11.45
2023-04-15T13:11:33.567Z,11.46
2023-04-15T13:14:02.206Z,11.46
2023-04-15T13:16:30.090Z,11.43
2023-04-15T13:18:57.729Z,11.41
2023-04-15T13:21:25.326Z,11.36
2023-04-15T13:23:54.425Z,11.28
2023-04-15T13:26:22.190Z,11.24
2023-04-15T13:28:49.738Z,11.18
2023-04-15T13:31:17.300Z,11.12
2023-04-15T13:33:44.872Z,11.11
2023-04-15T13:36:12.421Z,11.08
2023-04-15T13:38:39.987Z,11.07
2023-04-15T13:41:08.846Z,11.06
2023-04-15T13:43:36.661Z,11.06
2023-04-15T13:46:04.323Z,11.04
2023-04-15T13:48:31.973Z,10.97
2023-04-15T13:50:59.500Z,10.96
2023-04-15T13:53:33.901Z,10.94
2023-04-15T13:56:07.306Z,10.92
2023-04-15T13:58:37.923Z,10.95
2023-04-15T14:01:06.999Z,11.00
2023-04-15T14:03:36.245Z,10.99
2023-04-15T14:06:04.271Z,10.98
2023-04-15T14:08:32.038Z,10.96
2023-04-15T14:10:59.663Z,10.95
2023-04-15T14:13:27.148Z,10.93
2023-04-15T14:15:56.262Z,10.89
2023-04-15T14:18:23.841Z,10.89
2023-04-15T14:20:51.645Z,10.90
2023-04-15T14:23:19.250Z,10.88
2023-04-15T14:25:48.332Z,10.83
2023-04-15T14:28:16.201Z,10.80
2023-04-15T14:30:43.842Z,10.79
2023-04-15T14:33:13.080Z,10.78
2023-04-15T14:35:40.739Z,10.78
2023-04-15T14:38:10.952Z,10.77
2023-04-15T14:40:38.990Z,10.71
2023-04-15T14:43:06.565Z,10.67
2023-04-15T14:45:34.267Z,10.67
2023-04-15T14:48:02.453Z,10.69
2023-04-15T14:50:31.484Z,10.66
2023-04-15T14:52:59.454Z,10.60
2023-04-15T14:55:26.948Z,10.52
2023-04-15T14:57:54.768Z,10.47
2023-04-15T15:00:22.319Z,10.42
2023-04-15T15:02:50.044Z,10.37
2023-04-15T15:05:17.733Z,10.31
2023-04-15T15:07:46.876Z,10.25
2023-04-15T15:10:14.468Z,10.20
2023-04-15T15:12:41.982Z,10.11
2023-04-15T15:15:24.875Z,10.07
2023-04-15T15:17:53.050Z,10.00
2023-04-15T15:20:20.746Z,9.94
2023-04-15T15:22:49.637Z,9.88
2023-04-15T15:25:17.279Z,9.83
2023-04-15T15:27:45.144Z,9.79
2023-04-15T15:30:13.617Z,9.72
2023-04-15T15:32:41.916Z,9.68
2023-04-15T15:35:10.646Z,9.63
2023-04-15T15:37:38.538Z,9.58
2023-04-15T15:40:09.037Z,9.53
2023-04-15T15:42:36.820Z,9.45
2023-04-15T15:45:05.154Z,9.34
2023-04-15T15:47:34.929Z,9.25
2023-04-15T15:50:06.062Z,9.20
2023-04-15T15:52:33.778Z,9.19
2023-04-15T15:55:01.987Z,9.12
2023-04-15T15:57:30.998Z,9.02
2023-04-15T16:00:10.266Z,8.96
2023-04-15T16:03:05.010Z,8.88
2023-04-15T16:05:30.607Z,8.83
2023-04-15T16:07:58.210Z,8.82
2023-04-15T16:10:26.086Z,8.85
2023-04-15T16:12:55.559Z,8.86
2023-04-15T16:15:23.727Z,8.86
2023-04-15T16:17:51.423Z,8.86
2023-04-15T16:20:18.995Z,8.84
2023-04-15T16:22:46.661Z,8.81
2023-04-15T16:25:14.317Z,8.81
2023-04-15T16:27:57.289Z,8.82
2023-04-15T16:30:30.351Z,8.87
2023-04-15T16:32:58.104Z,8.91
2023-04-15T16:35:25.831Z,8.94
2023-04-15T16:37:53.336Z,8.92
2023-04-15T16:40:20.876Z,8.84
2023-04-15T16:42:48.474Z,8.79
2023-04-15T16:45:16.204Z,8.80
2023-04-15T16:47:45.160Z,8.78
2023-04-15T16:50:12.759Z,8.78
2023-04-15T16:52:40.392Z,8.74
2023-04-15T16:55:08.144Z,8.72
2023-04-15T16:57:46.367Z,8.74
2023-04-15T17:00:23.564Z,8.72
2023-04-15T17:02:52.593Z,8.67
2023-04-15T17:05:20.482Z,8.64
2023-04-15T17:07:48.220Z,8.58
2023-04-15T17:10:16.170Z,8.55
2023-04-15T17:12:43.752Z,8.50
2023-04-15T17:15:11.473Z,8.56
2023-04-15T17:17:39.072Z,8.51
2023-04-15T17:20:08.791Z,8.50
2023-04-15T17:22:36.361Z,8.49
2023-04-15T17:25:04.643Z,8.49
2023-04-15T17:27:32.323Z,8.50
2023-04-15T17:29:59.928Z,8.49
2023-04-15T17:32:31.755Z,8.50
2023-04-15T17:34:59.578Z,8.52
2023-04-15T17:37:28.498Z,8.50
2023-04-15T17:39:56.033Z,8.42
2023-04-15T17:42:23.552Z,8.37
2023-04-15T17:44:51.078Z,8.34
2023-04-15T17:47:18.757Z,8.31
2023-04-15T17:49:47.213Z,8.24
2023-04-15T17:52:14.779Z,8.20
2023-04-15T17:54:43.652Z,8.18
2023-04-15T17:57:11.210Z,8.19
2023-04-15T17:59:38.779Z,8.23
2023-04-15T18:02:06.359Z,8.27
2023-04-15T18:04:34.043Z,8.30
2023-04-15T18:07:01.897Z,8.28
2023-04-15T18:09:29.494Z,8.23
2023-04-15T18:11:58.485Z,8.18
2023-04-15T18:14:34.335Z,8.16
2023-04-15T18:17:02.515Z,8.15
2023-04-15T18:19:30.799Z,8.17
2023-04-15T18:21:59.817Z,8.18
2023-04-15T18:24:27.396Z,8.11
2023-04-15T18:26:55.205Z,8.11
2023-04-15T18:29:25.212Z,8.14
2023-04-15T18:31:52.833Z,8.15
2023-04-15T18:34:20.615Z,8.12
2023-04-15T18:36:48.199Z,8.09
2023-04-15T18:39:16.678Z,8.07
2023-04-15T18:41:44.201Z,8.05
2023-04-15T18:44:11.716Z,8.04
2023-04-15T18:46:40.791Z,8.01
2023-04-15T18:49:08.360Z,8.00
2023-04-15T18:51:36.923Z,7.98
2023-04-15T18:54:04.679Z,7.96
2023-04-15T18:56:32.412Z,7.98
2023-04-15T18:59:18.425Z,7.97
2023-04-15T19:01:49.212Z,7.94
2023-04-15T19:04:16.762Z,7.95
2023-04-15T19:06:44.304Z,8.00
2023-04-15T19:09:11.846Z,8.05
2023-04-15T19:11:39.449Z,8.09
2023-04-15T19:14:07.063Z,8.11
2023-04-15T19:16:34.625Z,8.10
2023-04-15T19:19:03.888Z,8.11
2023-04-15T19:21:32.935Z,8.10
2023-04-15T19:24:01.070Z,8.14
2023-04-15T19:26:28.695Z,8.14
2023-04-15T19:28:58.864Z,8.14
2023-04-15T19:31:26.647Z,8.15
2023-04-15T19:33:54.181Z,8.17
2023-04-15T19:36:23.136Z,8.17
2023-04-15T19:38:50.760Z,8.14
2023-04-15T19:41:18.529Z,8.13
2023-04-15T19:43:46.116Z,8.11
2023-04-15T19:46:13.972Z,8.11
2023-04-15T19:48:41.511Z,8.12
2023-04-15T19:51:09.098Z,8.10
2023-04-15T19:53:37.965Z,8.04
2023-04-15T19:56:05.491Z,7.96
2023-04-15T19:58:33.408Z,7.91
2023-04-15T20:01:01.390Z,7.89
2023-04-15T20:03:29.206Z,7.89
2023-04-15T20:05:56.956Z,7.88
2023-04-15T20:08:24.492Z,7.90
2023-04-15T20:10:53.380Z,7.92
2023-04-15T20:13:20.968Z,7.91
